Detall de PIREP

Printer-friendly versionPDF version

[2015/02/14 09:37:00]
Flight IATA:CT3409
Pilot Number:012
Company ICAO:CAT
Aircraft Type:AT72/F
PAX:62
Departing Airport: LSGG
Destination Airport: LEBL
Alternate Airport:LEPA
Online: VATSIM
Route:DEPUL G5 MEN A27 PPG B384 ALBER
Flight Level:F190
No Slew and time accel
No pause
Crash detect
Detect pilot in Cockpit between each 30 and 45 minutes
09:37 Zero fuel Weight: 42136 Lbs, Fuel Weight: 6159 Lbs
09:37 VATSIM:LSGG 140920Z VRB03KT 9999 FEW010 BKN035 05/05 Q1011 NOSIG
09:37 VATSIM:LEBL 140900Z 32008KT 280V340 9999 FEW025 SCT055 09/04 Q1015 NOSIG
09:41 Parking Brakes off
09:45 Take-off
09:45 Take off Weight: 48236 Lbs
09:45 Wind: 358º @ 003 Knots Heading: 224º
09:45 POS N46º 14´ 24´´ E006º 06´ 44´´
09:45 Flaps:1 at 130 Knots
09:45 Gear Up: 130 Knots
09:46 Flaps:0 at 161 Knots
10:00 Wind:247º@038 Knots Heading: 238º Ground Speed: 198 Knots Altitude 18638 ft
10:00 TOC
10:00 Fuel Weight: 5626 Lb
10:15 Wind:269º@042 Knots Heading: 235º Ground Speed: 244 Knots Altitude 18884 ft
10:30 Wind:289º@052 Knots Heading: 197º Ground Speed: 279 Knots Altitude 18920 ft
10:45 Wind:295º@059 Knots Heading: 198º Ground Speed: 286 Knots Altitude 18996 ft
10:57 TOD
10:57 Fuel Weight: 3950 Lb
11:00 Wind:295º@046 Knots Heading: 199º Ground Speed: 294 Knots Altitude 15354 ft
11:11 Flaps:1 at 188 Knots
11:11 Gear Down: 159 Knots
11:13 Flaps:2 at 147 Knots
11:15 Wind:298º@005 Knots Heading: 247º Ground Speed: 123 Knots Altitude 531 ft
11:15 TouchDown:Rate -43 ft/min Speed: 109 Knots
11:16 Flaps:1 at 47 Knots
11:16 Flaps:0 at 45 Knots
11:16 VATSIM:LEBL 141100Z 31005KT 9999 FEW030 13/05 Q1014 NOSIG
11:16 Land
11:16 Wind:301º@005 Knots
11:16 Heading: 207º
11:16 Flight Duration: 01:31
11:16 Landing Weight: 45816 Lbs
11:16 POS N41º 17´ 59´´ E002º 05´ 11´´
11:19 Parking brakes on
11:19 Block to Block Duration: 01:38
11:19 Final Fuel: 3661 Lbls
11:19 Spent Fuel: 2497 Lbls
11:19 Flight Length: 370 NM
11:19 TOD Land Length: 71 NM

Exportar CSV

Powered by Drupal - Modified by Danger4k